Time;durP1;ratioP1;P1;durP2;ratioP2;P2;SDS_P1;SDS_P2;PMS_P1;PMS_P2;Temp;Humidity;BMP_temperature;BMP_pressure;BME280_temperature;BME280_humidity;BME280_pressure;Samples;Min_cycle;Max_cycle;Signal;HPM_P1;HPM_P2
2022/04/11 00:00:17;;;;;;;;;;;9.00;76.40;;;7.96;72.32;95964.06;4125342;34;19904;-90
2022/04/11 00:02:46;;;;;;;;;;;9.00;76.40;;;7.94;71.86;95958.84;4125143;34;19956;-89
2022/04/11 00:05:16;;;;;;;;;;;9.00;77.30;;;7.94;71.83;95968.94;4147636;34;19904;-89
2022/04/11 00:07:45;;;;;;;;;;;9.00;76.40;;;7.95;71.67;95976.03;4125222;34;20400;-89
2022/04/11 00:10:14;;;;;;;;;;;9.00;76.40;;;7.94;72.04;95975.19;4125248;34;20047;-90
2022/04/11 00:12:42;;;;;;;;;;;9.00;76.50;;;7.93;72.12;95968.13;4102707;34;20131;-89
2022/04/11 00:15:11;;;;;;;;;;;9.00;76.40;;;7.93;71.67;95981.75;4102576;34;19908;-89
2022/04/11 00:17:40;;;;;;;;;;;9.00;76.40;;;7.94;72.09;95979.84;4102336;34;20108;-89
2022/04/11 00:20:10;;;;;;;;;;;9.00;76.40;;;7.93;72.14;95978.19;4125066;34;20284;-89
2022/04/11 00:22:40;;;;;;;;;;;9.00;76.40;;;7.92;71.82;95982.84;4102772;34;20091;-89
2022/04/11 00:25:10;;;;;;;;;;;9.00;76.50;;;7.92;72.16;95985.56;4124935;34;19911;-89
2022/04/11 00:27:39;;;;;;;;;;;9.00;76.40;;;7.91;72.06;95992.09;4124517;34;19904;-89
2022/04/11 00:30:09;;;;;;;;;;;9.00;76.30;;;7.91;71.98;95986.66;4124974;34;20272;-89
2022/04/11 00:32:40;;;;;;;;;;;9.00;76.40;;;7.92;72.09;95991.03;4108057;34;20216;-88
2022/04/11 00:35:10;;;;;;;;;;;9.00;76.40;;;7.92;71.94;95982.84;4124718;34;19971;-88
2022/04/11 00:37:40;;;;;;;;;;;9.00;76.50;;;7.91;71.72;95986.66;4124333;34;19951;-87
2022/04/11 00:40:10;;;;;;;;;;;9.00;76.40;;;7.91;71.84;95997.56;4102249;34;20038;-87
2022/04/11 00:42:39;;;;;;;;;;;9.00;76.50;;;7.91;71.74;96013.91;4124679;34;19904;-88
2022/04/11 00:45:08;;;;;;;;;;;9.00;76.50;;;7.90;71.99;96012.25;4124714;34;20139;-87
2022/04/11 00:47:38;;;;;;;;;;;9.00;76.50;;;7.91;72.09;96004.88;4101983;34;19904;-89
2022/04/11 00:50:08;;;;;;;;;;;9.00;76.40;;;7.91;72.12;96008.44;4146974;34;19904;-89
2022/04/11 00:52:41;;;;;;;;;;;9.00;76.40;;;7.90;72.18;96012.25;4102386;34;19911;-89
2022/04/11 00:55:10;;;;;;;;;;;9.00;76.40;;;7.90;71.76;96016.88;4124425;34;19911;-89
2022/04/11 00:57:39;;;;;;;;;;;9.00;76.50;;;7.89;72.10;96021.50;4124232;34;20368;-89
2022/04/11 01:00:10;;;;;;;;;;;9.00;76.50;;;7.90;71.63;96022.31;4102102;34;19904;-89
2022/04/11 01:02:38;;;;;;;;;;;9.00;76.50;;;7.89;72.05;96018.78;4102207;34;20175;-89
2022/04/11 01:05:09;;;;;;;;;;;9.00;76.40;;;7.89;71.86;96018.78;4124441;34;20069;-89
2022/04/11 01:07:39;;;;;;;;;;;9.00;76.50;;;7.89;71.91;96031.56;4146563;34;19904;-89
2022/04/11 01:10:09;;;;;;;;;;;9.00;76.40;;;7.88;71.99;96036.22;4124254;34;19911;-89
2022/04/11 01:12:38;;;;;;;;;;;9.00;76.40;;;7.88;71.90;96047.13;4124215;34;19904;-89
2022/04/11 01:15:08;;;;;;;;;;;9.00;76.50;;;7.87;71.66;96048.19;4102056;34;19922;-89
2022/04/11 01:17:38;;;;;;;;;;;9.00;76.50;;;7.87;72.44;96050.13;4124918;34;19912;-89
2022/04/11 01:20:10;;;;;;;;;;;9.00;76.50;;;7.88;72.29;96055.28;4123652;34;19903;-89
2022/04/11 01:22:40;;;;;;;;;;;9.00;76.60;;;7.87;72.20;96053.66;4124374;34;20116;-89
2022/04/11 01:25:11;;;;;;;;;;;9.00;76.70;;;7.87;72.12;96064.56;4101785;34;20001;-89
2022/04/11 01:27:41;;;;;;;;;;;9.00;76.50;;;7.88;71.83;96060.75;4101461;34;19904;-89
2022/04/11 01:30:14;;;;;;;;;;;9.00;76.50;;;7.86;72.09;96060.19;4101968;34;19904;-89
2022/04/11 01:32:46;;;;;;;;;;;9.00;76.60;;;7.87;72.11;96063.75;4124343;34;20006;-89
2022/04/11 01:35:22;;;;;;;;;;;9.00;76.40;;;7.87;71.79;96070.00;4101844;34;19904;-89
2022/04/11 01:37:54;;;;;;;;;;;9.00;76.50;;;7.84;71.70;96065.06;4123571;34;19904;-89
2022/04/11 01:40:22;;;;;;;;;;;9.00;76.40;;;7.86;71.69;96070.25;4101915;34;20158;-90
2022/04/11 01:42:51;;;;;;;;;;;9.00;76.40;;;7.83;72.07;96071.59;4101814;34;20006;-89
2022/04/11 01:45:20;;;;;;;;;;;8.90;76.50;;;7.83;71.86;96074.31;4101816;34;19911;-90
2022/04/11 01:47:49;;;;;;;;;;;8.90;76.50;;;7.86;72.13;96079.25;4101311;34;20215;-89
2022/04/11 01:50:18;;;;;;;;;;;8.90;76.50;;;7.85;71.90;96080.31;4101624;34;19904;-89
2022/04/11 01:52:48;;;;;;;;;;;8.90;76.50;;;7.82;72.38;96087.13;4124045;34;20228;-89
2022/04/11 01:55:18;;;;;;;;;;;8.90;76.60;;;7.85;71.73;96090.41;4101668;34;19926;-89
2022/04/11 01:57:49;;;;;;;;;;;8.90;76.50;;;7.85;71.98;96095.88;4101302;34;19911;-89
2022/04/11 02:00:17;;;;;;;;;;;8.90;76.50;;;7.83;71.67;96093.38;4123686;34;20135;-89
2022/04/11 02:02:47;;;;;;;;;;;8.90;76.50;;;7.83;71.75;96093.38;4101477;34;20171;-89
2022/04/11 02:05:16;;;;;;;;;;;8.90;76.50;;;7.83;72.20;96104.28;4119309;34;19903;-89
2022/04/11 02:07:45;;;;;;;;;;;8.90;76.50;;;7.83;71.71;96093.38;4123650;34;20104;-89
2022/04/11 02:10:13;;;;;;;;;;;8.90;76.50;;;7.82;72.14;96098.03;4096906;34;20054;-89
2022/04/11 02:12:44;;;;;;;;;;;8.90;76.50;;;7.81;71.87;96095.56;4096963;34;19913;-89
2022/04/11 02:15:12;;;;;;;;;;;8.90;76.60;;;7.81;71.88;96101.00;4101330;34;19923;-89
2022/04/11 02:17:41;;;;;;;;;;;8.90;76.50;;;7.82;72.27;96100.75;4123253;34;19911;-89
2022/04/11 02:20:11;;;;;;;;;;;8.90;76.50;;;7.82;71.76;96099.91;4123641;34;20131;-89
2022/04/11 02:22:47;;;;;;;;;;;8.90;76.70;;;7.82;72.10;96099.91;4123760;34;19911;-89
2022/04/11 02:25:16;;;;;;;;;;;8.90;76.50;;;7.81;71.66;96096.38;4109119;34;20244;-89
2022/04/11 02:27:46;;;;;;;;;;;8.90;76.50;;;7.81;72.18;96107.28;4100901;34;20053;-89
2022/04/11 02:30:16;;;;;;;;;;;8.90;76.60;;;7.78;72.00;96101.53;4123056;34;20223;-89
2022/04/11 02:32:45;;;;;;;;;;;8.90;76.50;;;7.81;71.70;96101.00;4147669;34;19912;-89
2022/04/11 02:35:13;;;;;;;;;;;8.90;76.50;;;7.79;71.94;96097.72;4125779;34;19915;-89
2022/04/11 02:37:44;;;;;;;;;;;8.90;77.40;;;7.78;71.75;96096.06;4103347;34;20100;-89
2022/04/11 02:40:13;;;;;;;;;;;8.90;76.50;;;7.79;71.62;96092.28;4103276;34;20005;-89
2022/04/11 02:42:51;;;;;;;;;;;8.90;76.50;;;7.77;71.85;96091.69;4125668;34;19912;-89
2022/04/11 02:45:20;;;;;;;;;;;8.90;76.50;;;7.79;71.69;96100.44;4125633;34;19904;-88
2022/04/11 02:47:49;;;;;;;;;;;8.90;76.40;;;7.79;71.29;96103.16;4125283;34;20359;-90
2022/04/11 02:50:17;;;;;;;;;;;8.90;76.40;;;7.79;72.32;96109.44;4125862;34;20142;-89
2022/04/11 02:53:12;;;;;;;;;;;8.90;76.40;;;7.78;71.71;96112.41;4122843;34;20258;-89
2022/04/11 02:55:41;;;;;;;;;;;8.90;76.40;;;7.78;72.14;96112.41;4116539;34;20497;-89
2022/04/11 02:58:11;;;;;;;;;;;8.90;76.40;;;7.78;72.06;96115.16;4125037;34;19904;-89
2022/04/11 03:00:43;;;;;;;;;;;8.90;76.40;;;7.78;71.84;96112.41;4112745;34;19912;-89
2022/04/11 03:03:12;;;;;;;;;;;8.90;76.40;;;7.76;71.96;96120.84;4103092;34;20155;-88
2022/04/11 03:05:43;;;;;;;;;;;8.90;76.40;;;7.76;71.77;96120.84;4125296;34;19904;-89
2022/04/11 03:08:12;;;;;;;;;;;8.90;76.30;;;7.76;71.79;96126.28;4102586;34;19919;-89
2022/04/11 03:10:43;;;;;;;;;;;8.90;76.40;;;7.76;72.02;96125.47;4113915;34;20278;-89
2022/04/11 03:13:13;;;;;;;;;;;8.80;76.30;;;7.75;71.71;96123.81;4125273;34;20359;-89
2022/04/11 03:15:42;;;;;;;;;;;8.90;76.50;;;7.76;71.74;96120.84;4125285;34;19947;-89
2022/04/11 03:18:11;;;;;;;;;;;8.90;76.40;;;7.75;71.72;96129.28;4124770;34;19911;-89
2022/04/11 03:20:41;;;;;;;;;;;8.90;76.40;;;7.74;71.63;96133.06;4125314;34;19968;-90
2022/04/11 03:23:10;;;;;;;;;;;8.90;76.40;;;7.74;71.45;96127.63;4125150;34;19905;-89
2022/04/11 03:25:41;;;;;;;;;;;8.90;76.50;;;7.73;72.05;96126.81;4120607;34;20087;-89
2022/04/11 03:28:17;;;;;;;;;;;8.80;76.40;;;7.75;72.02;96142.91;4076170;34;19905;-89
2022/04/11 03:30:46;;;;;;;;;;;8.80;76.40;;;7.74;71.92;96138.53;4096500;34;19939;-89
2022/04/11 03:33:16;;;;;;;;;;;8.80;76.50;;;7.74;71.76;96138.53;4124984;34;19904;-89
2022/04/11 03:35:45;;;;;;;;;;;8.80;76.40;;;7.74;71.92;96138.53;4125178;34;19945;-89
2022/04/11 03:38:14;;;;;;;;;;;8.80;76.30;;;7.72;71.52;96138.78;4124454;34;20327;-90
2022/04/11 03:40:43;;;;;;;;;;;8.80;76.30;;;7.73;71.73;96136.88;4124796;34;20135;-89
2022/04/11 03:43:14;;;;;;;;;;;8.80;76.40;;;7.73;71.84;96147.78;4102417;34;20119;-89
2022/04/11 03:45:46;;;;;;;;;;;8.80;76.20;;;7.71;71.51;96142.59;4124878;34;20115;-90
2022/04/11 03:48:18;;;;;;;;;;;8.80;76.40;;;7.72;71.67;96146.13;4102139;34;19911;-89
2022/04/11 03:50:47;;;;;;;;;;;8.80;76.40;;;7.72;72.00;96146.13;4106869;34;20109;-90
2022/04/11 03:53:16;;;;;;;;;;;8.80;76.60;;;7.72;71.95;96140.66;4124939;34;19904;-89
2022/04/11 03:55:47;;;;;;;;;;;8.80;76.50;;;7.71;71.87;96149.91;4125148;34;19911;-90
2022/04/11 03:58:17;;;;;;;;;;;8.80;76.40;;;7.70;72.15;96149.13;4124690;34;20088;-89
2022/04/11 04:00:49;;;;;;;;;;;8.80;76.40;;;7.70;71.37;96153.72;4124979;34;19911;-90
2022/04/11 04:03:30;;;;;;;;;;;8.80;76.40;;;7.71;72.13;96163.53;4125024;34;19904;-90
2022/04/11 04:06:04;;;;;;;;;;;8.80;76.40;;;7.71;71.99;96163.53;4102373;34;19904;-90
2022/04/11 04:08:37;;;;;;;;;;;8.80;76.40;;;7.71;71.76;96160.81;4147696;34;19904;-90
2022/04/11 04:11:13;;;;;;;;;;;8.80;76.30;;;7.69;71.80;96163.81;4125207;34;20093;-90
2022/04/11 04:13:51;;;;;;;;;;;8.80;76.20;;;7.72;71.93;96173.38;4125054;34;20142;-90
2022/04/11 04:16:22;;;;;;;;;;;8.80;76.20;;;7.72;71.84;96168.75;4124713;34;19912;-90
2022/04/11 04:18:57;;;;;;;;;;;8.80;76.20;;;7.70;71.79;96170.06;4125136;34;20097;-90
2022/04/11 04:21:25;;;;;;;;;;;8.80;76.20;;;7.73;71.58;96175.03;4124882;34;19911;-90
2022/04/11 04:23:54;;;;;;;;;;;8.80;76.20;;;7.73;72.13;96180.47;4124882;34;19904;-90
2022/04/11 04:26:26;;;;;;;;;;;8.80;76.20;;;7.74;71.63;96187.56;4124414;34;19904;-90
2022/04/11 04:28:56;;;;;;;;;;;8.80;76.10;;;7.74;71.66;96191.13;4147500;34;20138;-90
2022/04/11 04:31:30;;;;;;;;;;;8.80;76.00;;;7.75;71.81;96190.03;4124927;34;20383;-89
2022/04/11 04:33:59;;;;;;;;;;;8.80;76.10;;;7.76;72.07;96180.78;4124817;34;20250;-90
2022/04/11 04:36:28;;;;;;;;;;;8.80;76.10;;;7.80;71.40;96186.56;4124384;34;19920;-90
2022/04/11 04:39:00;;;;;;;;;;;8.90;76.10;;;7.81;71.80;96183.59;4124632;34;19904;-89
2022/04/11 04:41:30;;;;;;;;;;;8.90;76.10;;;7.85;71.58;96180.34;4121640;34;20123;-90
2022/04/11 04:43:59;;;;;;;;;;;8.90;75.90;;;7.86;71.52;96180.09;4124730;34;19975;-90
2022/04/11 04:46:29;;;;;;;;;;;9.00;75.70;;;7.87;71.19;96181.75;4124096;34;20208;-89
2022/04/11 04:49:04;;;;;;;;;;;9.00;75.60;;;7.91;71.24;96185.63;4124509;34;20085;-89
2022/04/11 04:51:32;;;;;;;;;;;9.00;75.50;;;7.98;71.25;96188.16;4102397;34;20175;-90
2022/04/11 04:54:05;;;;;;;;;;;9.10;75.40;;;8.03;70.58;96184.66;4102148;34;19904;-90
2022/04/11 04:56:37;;;;;;;;;;;9.10;75.10;;;8.07;70.34;96185.78;4101217;34;19911;-88
2022/04/11 04:59:13;;;;;;;;;;;9.20;74.80;;;8.11;70.50;96186.94;4124573;34;20136;-89
2022/04/11 05:01:43;;;;;;;;;;;9.20;74.80;;;8.16;70.92;96187.00;4124441;34;19911;-89
2022/04/11 05:04:13;;;;;;;;;;;9.30;75.00;;;8.31;71.30;96193.69;4124681;34;19908;-89
2022/04/11 05:06:43;;;;;;;;;;;9.50;75.50;;;8.53;71.10;96180.88;4101621;34;19950;-90
2022/04/11 05:09:14;;;;;;;;;;;9.80;75.00;;;8.78;70.21;96182.19;4102078;34;19951;-90
2022/04/11 05:11:46;;;;;;;;;;;10.10;73.90;;;9.00;68.88;96187.56;4102413;34;19919;-89
2022/04/11 05:14:15;;;;;;;;;;;10.30;72.40;;;9.19;68.38;96187.97;4124265;34;19908;-89
2022/04/11 05:16:47;;;;;;;;;;;10.50;71.60;;;9.45;67.87;96187.31;4123982;34;19904;-89
2022/04/11 05:19:19;;;;;;;;;;;10.80;70.70;;;9.75;66.43;96185.84;4124106;34;20032;-89
2022/04/11 05:21:48;;;;;;;;;;;11.10;69.10;;;9.94;65.38;96187.00;4124208;34;19911;-89
2022/04/11 05:24:17;;;;;;;;;;;11.30;67.80;;;10.08;64.77;96187.38;4124248;34;19904;-89
2022/04/11 05:26:45;;;;;;;;;;;11.40;67.10;;;10.14;64.28;96185.47;4101479;34;20123;-89
2022/04/11 05:29:14;;;;;;;;;;;11.40;66.80;;;10.14;64.18;96189.00;4146690;34;19903;-89
2022/04/11 05:31:43;;;;;;;;;;;11.40;66.70;;;10.11;64.65;96200.50;4124081;34;20099;-89
2022/04/11 05:34:13;;;;;;;;;;;11.30;67.10;;;9.99;64.61;96191.72;4124075;34;20154;-89
2022/04/11 05:36:42;;;;;;;;;;;11.20;67.30;;;9.87;65.01;96193.84;4123725;34;19904;-89
2022/04/11 05:39:13;;;;;;;;;;;11.10;67.80;;;9.69;65.49;96201.41;4124210;34;20032;-89
2022/04/11 05:41:42;;;;;;;;;;;10.90;68.40;;;9.49;66.21;96200.19;4124106;34;19904;-87
2022/04/11 05:44:11;;;;;;;;;;;10.80;69.00;;;9.34;66.76;96200.09;4102041;34;20077;-89
2022/04/11 05:46:46;;;;;;;;;;;10.70;69.70;;;9.19;67.50;96196.16;4123539;34;20232;-89
2022/04/11 05:49:22;;;;;;;;;;;10.50;70.50;;;9.21;67.62;96199.47;4123833;34;20131;-89
2022/04/11 05:51:51;;;;;;;;;;;10.40;71.00;;;9.25;67.72;96204.38;4124077;34;20123;-89
2022/04/11 05:54:20;;;;;;;;;;;10.50;71.30;;;9.34;67.63;96202.81;4124882;34;20045;-88
2022/04/11 05:56:48;;;;;;;;;;;10.50;71.30;;;9.34;67.48;96209.09;4101198;34;19911;-88
2022/04/11 05:59:18;;;;;;;;;;;10.50;71.00;;;9.27;67.24;96218.59;4124081;34;20132;-88
2022/04/11 06:01:47;;;;;;;;;;;10.40;70.90;;;9.19;67.70;96212.56;4123904;34;19940;-89
2022/04/11 06:04:16;;;;;;;;;;;10.40;71.20;;;9.11;67.75;96204.81;4124030;34;20046;-89
2022/04/11 06:06:47;;;;;;;;;;;10.30;71.30;;;8.99;68.60;96202.28;4100998;34;19964;-89
2022/04/11 06:09:16;;;;;;;;;;;10.20;71.50;;;8.89;68.62;96210.41;4123933;34;20128;-89
2022/04/11 06:11:46;;;;;;;;;;;10.10;72.00;;;8.78;68.58;96212.19;4101525;34;19912;-89
2022/04/11 06:14:16;;;;;;;;;;;10.00;72.40;;;8.68;69.20;96209.38;4146306;34;20154;-90
2022/04/11 06:16:45;;;;;;;;;;;9.90;73.00;;;8.59;69.76;96219.94;4122998;34;20091;-89
2022/04/11 06:19:14;;;;;;;;;;;9.80;73.30;;;8.55;69.59;96219.63;4123745;34;20077;-90
2022/04/11 06:21:42;;;;;;;;;;;9.70;73.70;;;8.51;70.06;96214.94;4123534;34;20073;-90
2022/04/11 06:24:12;;;;;;;;;;;9.70;74.10;;;8.48;70.11;96215.47;4123564;34;20112;-88
2022/04/11 06:26:41;;;;;;;;;;;9.60;74.10;;;8.45;70.00;96224.97;4123089;34;20345;-90
2022/04/11 06:29:10;;;;;;;;;;;9.60;74.30;;;8.44;70.44;96223.31;4123534;34;19927;-89
2022/04/11 06:31:39;;;;;;;;;;;9.60;74.50;;;8.42;70.08;96222.72;4123371;34;19913;-89
2022/04/11 06:34:17;;;;;;;;;;;9.60;74.50;;;8.39;70.48;96215.06;4101406;34;19917;-89
2022/04/11 06:36:46;;;;;;;;;;;9.50;74.60;;;8.40;70.68;96224.88;4100920;34;19904;-90
2022/04/11 06:39:16;;;;;;;;;;;9.50;74.80;;;8.37;70.59;96230.84;4101332;34;20393;-90
2022/04/11 06:41:50;;;;;;;;;;;9.50;74.80;;;8.34;70.74;96228.63;4101301;34;19994;-90
2022/04/11 06:44:19;;;;;;;;;;;9.50;74.90;;;8.33;70.64;96237.88;4101149;34;20003;-90
2022/04/11 06:47:13;;;;;;;;;;;9.40;74.90;;;8.31;70.96;96238.16;4121602;34;19904;-90
2022/04/11 06:49:42;;;;;;;;;;;9.40;74.90;;;8.29;70.59;96243.88;4116280;34;20224;-89
2022/04/11 06:52:11;;;;;;;;;;;9.40;74.90;;;8.31;70.72;96248.25;4123412;34;20042;-90
2022/04/11 06:54:41;;;;;;;;;;;9.40;75.10;;;8.32;70.70;96247.19;4123372;34;19924;-89
2022/04/11 06:57:11;;;;;;;;;;;9.40;75.10;;;8.32;70.90;96241.72;4123089;34;19905;-89
2022/04/11 06:59:39;;;;;;;;;;;9.40;75.10;;;8.38;70.74;96251.59;4124404;34;19904;-90
2022/04/11 07:02:08;;;;;;;;;;;9.50;75.30;;;8.39;70.43;96254.06;4123233;34;19975;-89
2022/04/11 07:04:37;;;;;;;;;;;9.50;75.20;;;8.43;70.66;96254.41;4145943;34;20175;-89
2022/04/11 07:07:05;;;;;;;;;;;9.50;75.10;;;8.44;70.65;96262.31;4122963;34;19911;-90
2022/04/11 07:09:34;;;;;;;;;;;9.50;75.10;;;8.45;70.44;96253.03;4123429;34;19904;-89
2022/04/11 07:12:05;;;;;;;;;;;9.50;74.90;;;8.44;70.37;96264.22;4145846;34;19911;-90
2022/04/11 07:14:34;;;;;;;;;;;9.50;74.90;;;8.46;70.17;96262.03;4123264;34;19911;-90
2022/04/11 07:17:02;;;;;;;;;;;9.50;74.90;;;8.45;70.47;96269.41;4123558;34;20235;-89
2022/04/11 07:19:31;;;;;;;;;;;9.50;74.80;;;8.47;69.99;96265.63;4124871;34;19904;-90
2022/04/11 07:21:59;;;;;;;;;;;9.50;74.70;;;8.43;70.41;96265.31;4125611;34;20124;-89
2022/04/11 07:24:28;;;;;;;;;;;9.50;74.80;;;8.42;70.65;96266.38;4119367;34;19904;-89
2022/04/11 07:26:57;;;;;;;;;;;9.50;74.80;;;8.40;70.57;96266.63;4124939;34;20135;-90
2022/04/11 07:29:27;;;;;;;;;;;9.50;74.80;;;8.38;70.43;96267.97;4103333;34;20292;-89
2022/04/11 07:31:56;;;;;;;;;;;9.50;74.90;;;8.35;70.37;96272.03;4125494;34;19904;-89
2022/04/11 07:34:24;;;;;;;;;;;9.50;75.00;;;8.34;71.03;96266.81;4125577;34;19982;-89
2022/04/11 07:36:53;;;;;;;;;;;9.40;75.00;;;8.32;70.54;96283.44;4102555;34;19904;-90
2022/04/11 07:39:23;;;;;;;;;;;9.40;75.00;;;8.29;70.98;96271.16;4125253;34;19904;-90
2022/04/11 07:41:53;;;;;;;;;;;9.40;75.10;;;8.26;71.06;96277.09;4125397;34;19904;-90
2022/04/11 07:44:21;;;;;;;;;;;9.40;75.20;;;8.26;70.97;96273.56;4125213;34;20387;-89
2022/04/11 07:46:51;;;;;;;;;;;9.40;75.30;;;8.26;70.72;96288.00;4124636;34;19904;-89
2022/04/11 07:49:20;;;;;;;;;;;9.40;75.40;;;8.23;70.80;96284.97;4103201;34;20070;-90
2022/04/11 07:51:49;;;;;;;;;;;9.30;75.30;;;8.23;70.93;96287.69;4125387;34;19994;-89
2022/04/11 07:54:17;;;;;;;;;;;9.30;75.40;;;8.22;70.97;96289.59;4125150;34;19956;-90
2022/04/11 07:56:46;;;;;;;;;;;9.30;75.50;;;8.21;71.46;96290.66;4124786;34;19978;-90
2022/04/11 07:59:15;;;;;;;;;;;9.30;75.60;;;8.22;70.97;96292.31;4126159;34;20193;-90
2022/04/11 08:01:44;;;;;;;;;;;9.30;75.50;;;8.24;70.93;96290.16;4102794;34;19976;-89
2022/04/11 08:04:14;;;;;;;;;;;9.30;75.50;;;8.25;71.02;96299.19;4102645;34;20096;-89
2022/04/11 08:06:43;;;;;;;;;;;9.30;75.50;;;8.23;70.73;96298.63;4124446;34;19904;-90
2022/04/11 08:09:11;;;;;;;;;;;9.30;75.50;;;8.23;71.16;96293.97;4125197;34;20146;-90
2022/04/11 08:11:40;;;;;;;;;;;9.30;75.40;;;8.23;71.09;96304.88;4102701;34;19911;-89
2022/04/11 08:14:09;;;;;;;;;;;9.30;75.40;;;8.23;70.73;96302.16;4125010;34;19912;-89
2022/04/11 08:16:37;;;;;;;;;;;9.30;75.50;;;8.23;71.13;96304.88;4102138;34;19911;-90
2022/04/11 08:19:06;;;;;;;;;;;9.30;75.40;;;8.21;70.88;96301.56;4102671;34;19904;-90
2022/04/11 08:21:37;;;;;;;;;;;9.30;75.40;;;8.24;70.68;96303.00;4124693;34;19904;-90
2022/04/11 08:24:06;;;;;;;;;;;9.30;75.50;;;8.24;71.29;96298.34;4124893;34;20153;-90
2022/04/11 08:26:35;;;;;;;;;;;9.30;75.50;;;8.25;71.07;96301.91;4102010;34;19945;-90
2022/04/11 08:29:04;;;;;;;;;;;9.30;75.50;;;8.26;71.27;96309.84;4124759;34;19904;-89
2022/04/11 08:31:33;;;;;;;;;;;9.40;75.50;;;8.29;71.21;96305.75;4125249;34;20221;-89
2022/04/11 08:34:02;;;;;;;;;;;9.40;75.40;;;8.32;70.83;96301.72;4102297;34;19904;-89
2022/04/11 08:36:30;;;;;;;;;;;9.40;75.30;;;8.37;70.54;96299.03;4101967;34;19912;-89
2022/04/11 08:39:00;;;;;;;;;;;9.40;75.20;;;8.44;70.48;96310.59;4102418;34;19959;-90
2022/04/11 08:41:34;;;;;;;;;;;9.50;75.10;;;8.50;70.40;96295.97;4124754;34;19904;-90
2022/04/11 08:44:05;;;;;;;;;;;9.50;74.90;;;8.52;69.73;96288.34;4124488;34;19911;-89
2022/04/11 08:46:34;;;;;;;;;;;9.60;74.80;;;8.56;70.29;96294.13;4146590;34;19904;-89
2022/04/11 08:49:04;;;;;;;;;;;9.60;74.60;;;8.56;70.31;96285.94;4124242;34;19908;-89
2022/04/11 08:51:34;;;;;;;;;;;9.60;74.60;;;8.52;70.16;96280.16;4102256;34;19904;-89
2022/04/11 08:54:05;;;;;;;;;;;9.60;74.50;;;8.48;69.91;96289.94;4101960;34;20164;-89
2022/04/11 08:56:34;;;;;;;;;;;9.60;74.60;;;8.45;70.12;96279.53;4101778;34;20164;-90
2022/04/11 08:59:03;;;;;;;;;;;9.50;74.60;;;8.44;70.57;96283.31;4102148;34;19904;-90
2022/04/11 09:01:33;;;;;;;;;;;9.50;74.70;;;8.45;70.88;96277.59;4124458;34;19920;-89
2022/04/11 09:04:02;;;;;;;;;;;9.50;74.80;;;8.47;70.51;96280.06;4101922;34;20403;-89
2022/04/11 09:06:33;;;;;;;;;;;9.50;74.70;;;8.49;70.39;96282.59;4123733;34;20724;-89
2022/04/11 09:09:02;;;;;;;;;;;9.60;74.70;;;8.52;70.44;96279.34;4124324;34;19904;-89
2022/04/11 09:11:34;;;;;;;;;;;9.60;74.70;;;8.54;70.20;96269.81;4133435;34;19975;-89
2022/04/11 09:14:04;;;;;;;;;;;9.60;74.70;;;8.58;70.22;96270.94;4124332;34;20067;-88
2022/04/11 09:16:44;;;;;;;;;;;9.60;74.50;;;8.58;70.15;96260.03;4114722;34;19930;-89
2022/04/11 09:19:22;;;;;;;;;;;9.70;74.50;;;8.58;70.00;96262.75;4101614;34;20010;-89
2022/04/11 09:21:54;;;;;;;;;;;9.70;74.40;;;8.56;70.26;96259.47;4112634;34;20161;-88
2022/04/11 09:24:24;;;;;;;;;;;9.70;74.50;;;8.53;70.43;96265.44;4123787;34;19905;-89
2022/04/11 09:26:55;;;;;;;;;;;9.60;74.40;;;8.50;70.38;96257.75;4123154;34;19948;-89
2022/04/11 09:29:24;;;;;;;;;;;9.60;74.60;;;8.48;70.20;96256.38;4146641;34;20128;-89
2022/04/11 09:31:53;;;;;;;;;;;9.60;74.60;;;8.49;70.10;96258.03;4123754;34;19904;-89
2022/04/11 09:34:24;;;;;;;;;;;9.60;74.60;;;8.48;70.50;96262.66;4146304;34;19904;-89
2022/04/11 09:36:54;;;;;;;;;;;9.60;74.60;;;8.43;70.88;96251.66;4124069;34;20127;-89
2022/04/11 09:39:24;;;;;;;;;;;9.50;75.60;;;8.45;70.46;96249.50;4146342;34;19904;-89
2022/04/11 09:41:54;;;;;;;;;;;9.50;74.80;;;8.46;70.57;96253.84;4123082;34;19904;-89
2022/04/11 09:44:24;;;;;;;;;;;9.50;74.80;;;8.45;70.19;96247.59;4123680;34;19904;-88
2022/04/11 09:46:54;;;;;;;;;;;9.60;74.70;;;8.46;70.29;96253.84;4138798;34;19911;-88
2022/04/11 09:49:23;;;;;;;;;;;9.60;74.70;;;8.47;70.50;96255.50;4123547;34;20123;-89
2022/04/11 09:52:08;;;;;;;;;;;9.60;74.70;;;8.47;70.49;96255.50;4101203;34;19904;-88
2022/04/11 09:54:38;;;;;;;;;;;9.60;74.70;;;8.42;70.16;96258.19;4101215;34;20322;-88
2022/04/11 09:57:08;;;;;;;;;;;9.50;74.60;;;8.41;70.24;96259.28;4100763;34;20396;-88
2022/04/11 09:59:36;;;;;;;;;;;9.50;74.60;;;8.37;70.66;96263.59;4101229;34;19911;-89
2022/04/11 10:02:06;;;;;;;;;;;9.50;75.40;;;8.36;70.31;96256.47;4123391;34;19905;-89
2022/04/11 10:04:35;;;;;;;;;;;9.50;74.80;;;8.38;70.78;96246.97;4124272;34;20155;-89
2022/04/11 10:07:04;;;;;;;;;;;9.50;74.90;;;8.39;70.14;96253.25;4145770;34;20010;-89
2022/04/11 10:09:33;;;;;;;;;;;9.50;74.80;;;8.38;70.33;96257.91;4101365;34;20173;-88
2022/04/11 10:12:03;;;;;;;;;;;9.50;74.60;;;8.38;70.03;96257.06;4101192;34;19904;-89
2022/04/11 10:14:33;;;;;;;;;;;9.50;74.60;;;8.37;69.99;96261.69;4101235;34;19904;-89
2022/04/11 10:17:03;;;;;;;;;;;9.50;74.60;;;8.36;70.74;96270.13;4100668;34;19904;-88
2022/04/11 10:19:33;;;;;;;;;;;9.50;74.70;;;8.37;70.07;96266.31;4100950;34;19904;-89
2022/04/11 10:22:04;;;;;;;;;;;9.50;74.70;;;8.38;70.48;96255.16;4101382;34;20242;-89
2022/04/11 10:24:35;;;;;;;;;;;9.50;74.60;;;8.38;70.58;96249.72;4101042;34;20135;-88
2022/04/11 10:27:19;;;;;;;;;;;9.50;74.60;;;8.38;69.97;96251.59;4100438;34;19911;-88
2022/04/11 10:29:50;;;;;;;;;;;9.50;74.50;;;8.37;70.17;96260.84;4101114;34;20400;-89
2022/04/11 10:32:20;;;;;;;;;;;9.50;74.60;;;8.35;70.82;96252.94;4123359;34;19904;-89
2022/04/11 10:34:52;;;;;;;;;;;9.50;74.60;;;8.33;70.26;96251.53;4101020;34;19961;-89
2022/04/11 10:37:22;;;;;;;;;;;9.40;74.60;;;8.34;70.25;96261.34;4122648;34;20171;-88
2022/04/11 10:39:51;;;;;;;;;;;9.40;74.60;;;8.31;70.36;96270.06;4123367;34;19979;-88
2022/04/11 10:42:25;;;;;;;;;;;9.40;74.70;;;8.31;70.78;96261.88;4123502;34;20137;-88
2022/04/11 10:44:56;;;;;;;;;;;9.40;74.70;;;8.31;70.14;96280.97;4123394;34;20216;-88
2022/04/11 10:47:33;;;;;;;;;;;9.40;74.70;;;8.28;70.58;96272.22;4122861;34;19911;-88
2022/04/11 10:50:28;;;;;;;;;;;9.40;74.80;;;8.26;70.35;96273.56;4101147;34;20087;-88
2022/04/11 10:53:22;;;;;;;;;;;9.40;74.90;;;8.26;70.38;96279.03;4107495;34;20039;-88
2022/04/11 10:56:03;;;;;;;;;;;9.40;74.90;;;8.25;70.64;96280.91;4103226;34;20134;-88
2022/04/11 10:58:47;;;;;;;;;;;9.30;75.00;;;8.25;70.75;96285.56;4125667;34;20478;-89
2022/04/11 11:01:56;;;;;;;;;;;9.40;74.80;;;8.25;70.69;96280.09;4148164;34;19925;-89
2022/04/11 11:04:30;;;;;;;;;;;9.40;74.60;;;8.24;69.98;96276.53;4125545;34;20212;-89
2022/04/11 11:07:23;;;;;;;;;;;9.30;74.40;;;8.23;69.92;96272.16;4125325;34;19904;-89
2022/04/11 11:09:57;;;;;;;;;;;9.30;74.40;;;8.23;69.93;96266.69;4113532;34;19912;-89
2022/04/11 11:12:25;;;;;;;;;;;9.30;74.50;;;8.25;70.45;96261.00;4148193;34;20269;-90
2022/04/11 11:14:55;;;;;;;;;;;9.40;74.60;;;8.23;70.51;96253.06;4103371;34;20030;-89
2022/04/11 11:18:04;;;;;;;;;;;9.40;74.60;;;8.26;70.45;96251.75;4125071;34;19911;-90
2022/04/11 11:20:34;;;;;;;;;;;9.40;74.60;;;8.26;70.34;96258.00;4024140;35;19912;-89
2022/04/11 11:23:16;;;;;;;;;;;9.40;74.60;;;8.25;69.96;96270.00;4080500;34;20139;-88
2022/04/11 11:25:45;;;;;;;;;;;9.40;74.60;;;8.25;70.21;96283.63;4103225;34;20166;-89
2022/04/11 11:28:14;;;;;;;;;;;9.40;74.60;;;8.23;70.16;96288.50;4125013;34;19911;-89
2022/04/11 11:30:43;;;;;;;;;;;9.30;74.60;;;8.22;70.43;96288.78;4125446;34;20055;-89
2022/04/11 11:33:17;;;;;;;;;;;9.30;74.60;;;8.20;70.41;96278.09;4103134;34;19912;-89
2022/04/11 11:35:50;;;;;;;;;;;9.30;74.60;;;8.19;70.26;96284.66;4125257;34;20100;-89
2022/04/11 11:38:23;;;;;;;;;;;9.30;74.50;;;8.19;70.47;96275.63;4102409;34;20134;-89
2022/04/11 11:40:54;;;;;;;;;;;9.30;74.60;;;8.20;70.38;96282.75;4098529;34;19912;-89
2022/04/11 11:43:23;;;;;;;;;;;9.30;74.80;;;8.19;70.46;96309.22;4098512;34;20233;-89
2022/04/11 11:45:52;;;;;;;;;;;9.30;74.70;;;8.18;70.50;96306.72;4098374;34;20295;-88
2022/04/11 11:48:26;;;;;;;;;;;9.30;74.80;;;8.16;70.56;96297.97;4098039;34;20060;-89